Time;durP1;ratioP1;P1;durP2;ratioP2;P2;SDS_P1;SDS_P2;PMS_P1;PMS_P2;Temp;Humidity;BMP_temperature;BMP_pressure;BME280_temperature;BME280_humidity;BME280_pressure;Samples;Min_cycle;Max_cycle;Signal;HPM_P1;HPM_P2
2022/09/07 00:00:38;;;;;;;45.20;25.60;;;;;;;5.64;72.73;100311.48;109252;1277;22436;-59
2022/09/07 00:03:04;;;;;;;;;;;;;;;5.64;72.87;100312.09;109267;1277;23307;-59
2022/09/07 00:05:31;;;;;;;48.20;24.50;;;;;;;5.61;72.84;100311.20;108994;1277;124622;-59
2022/09/07 00:07:58;;;;;;;45.70;23.90;;;;;;;5.59;73.15;100309.33;109200;1277;22430;-59
2022/09/07 00:10:25;;;;;;;42.80;24.70;;;;;;;5.56;73.05;100310.19;109064;1277;138540;-59
2022/09/07 00:12:52;;;;;;;46.40;25.70;;;;;;;5.54;73.02;100308.23;109238;1277;23637;-59
2022/09/07 00:15:19;;;;;;;;;;;;;;;5.50;72.80;100310.58;109241;1277;22484;-59
2022/09/07 00:17:45;;;;;;;43.70;25.40;;;;;;;5.46;73.16;100308.92;109257;1277;22535;-60
2022/09/07 00:20:13;;;;;;;44.50;25.30;;;;;;;5.42;73.21;100309.83;109081;1277;23230;-59
2022/09/07 00:22:40;;;;;;;48.30;26.10;;;;;;;5.38;73.34;100308.95;109009;1277;139324;-59
2022/09/07 00:25:07;;;;;;;41.70;25.00;;;;;;;5.36;72.97;100307.52;109109;1278;22602;-59
2022/09/07 00:27:34;;;;;;;47.80;27.30;;;;;;;5.36;73.49;100306.19;108955;1278;138956;-60
2022/09/07 00:30:01;;;;;;;42.10;26.20;;;;;;;5.37;73.56;100304.78;109100;1277;22678;-60
2022/09/07 00:32:27;;;;;;;;;;;;;;;5.37;73.74;100303.99;109081;1277;22945;-59
2022/09/07 00:34:54;;;;;;;46.30;23.80;;;;;;;5.35;73.57;100300.45;108898;1278;125189;-59
2022/09/07 00:37:21;;;;;;;45.60;26.60;;;;;;;5.35;73.54;100297.28;109142;1277;22464;-59
2022/09/07 00:39:48;;;;;;;;;;;;;;;5.33;73.58;100296.11;108975;1277;140274;-59
2022/09/07 00:42:18;;;;;;;41.90;25.10;;;;;;;5.30;73.33;100297.34;109114;1277;22494;-60
2022/09/07 00:44:56;;;;;;;45.00;25.90;;;;;;;5.27;73.69;100293.51;109221;1277;23248;-60
2022/09/07 00:47:46;;;;;;;42.90;24.50;;;;;;;5.23;73.43;100293.08;109069;1277;138185;-60
2022/09/07 00:50:20;;;;;;;40.80;24.70;;;;;;;5.22;73.49;100294.19;109203;1277;22450;-60
2022/09/07 00:52:49;;;;;;;48.90;25.50;;;;;;;5.20;73.70;100290.58;108929;1277;138743;-60
2022/09/07 00:55:15;;;;;;;43.70;24.90;;;;;;;5.18;73.48;100295.62;109067;1277;23193;-59
2022/09/07 00:57:45;;;;;;;45.50;25.60;;;;;;;5.15;73.41;100293.70;108903;1277;139524;-60
2022/09/07 01:00:12;;;;;;;51.70;26.40;;;;;;;5.15;73.72;100292.52;109088;1277;22447;-59
2022/09/07 01:02:39;;;;;;;44.90;25.70;;;;;;;5.18;73.66;100289.05;109133;1277;22600;-60
2022/09/07 01:05:12;;;;;;;47.70;26.20;;;;;;;5.19;73.74;100288.00;109154;1277;139871;-59
2022/09/07 01:07:39;;;;;;;45.10;25.00;;;;;;;5.17;73.58;100288.84;109266;1277;23224;-59
2022/09/07 01:10:06;;;;;;;47.70;26.00;;;;;;;5.14;73.73;100283.50;108945;1277;138655;-59
2022/09/07 01:12:33;;;;;;;42.30;24.80;;;;;;;5.13;73.91;100284.00;109143;1277;23305;-59
2022/09/07 01:15:00;;;;;;;;;;;;;;;5.13;73.75;100281.96;109275;1277;22593;-59
2022/09/07 01:17:30;;;;;;;41.90;23.50;;;;;;;5.13;73.62;100282.58;108880;1277;126463;-59
2022/09/07 01:20:00;;;;;;;46.50;25.60;;;;;;;5.13;73.56;100276.23;109165;1277;23772;-59
2022/09/07 01:22:45;;;;;;;37.40;23.10;;;;;;;5.13;73.74;100275.48;108928;1277;139472;-60
2022/09/07 01:25:15;;;;;;;37.90;22.80;;;;;;;5.12;73.75;100270.11;109216;1277;22517;-59
2022/09/07 01:27:52;;;;;;;38.90;22.80;;;;;;;5.09;73.65;100268.15;108901;1277;139166;-59
2022/09/07 01:30:19;;;;;;;42.40;23.80;;;;;;;5.06;73.78;100266.44;109151;1276;23739;-59
2022/09/07 01:32:46;;;;;;;42.80;23.90;;;;;;;5.03;73.45;100267.73;109233;1276;22553;-59
2022/09/07 01:35:28;;;;;;;46.70;24.30;;;;;;;5.01;73.55;100268.14;109164;1277;138577;-59
2022/09/07 01:37:57;;;;;;;46.40;24.70;;;;;;;4.99;73.73;100266.10;109022;1277;22558;-59
2022/09/07 01:40:55;;;;;;;40.20;22.40;;;;;;;4.96;73.61;100265.88;109116;1277;140105;-59
2022/09/07 01:43:31;;;;;;;37.60;22.50;;;;;;;4.94;73.92;100262.79;108363;1284;22458;-59
2022/09/07 01:45:58;;;;;;;37.60;21.80;;;;;;;4.90;73.81;100264.53;108386;1283;139349;-59
2022/09/07 01:48:25;;;;;;;;;;;;;;;4.87;73.81;100265.64;108558;1284;22607;-60
2022/09/07 01:51:02;;;;;;;45.30;21.60;;;;;;;4.84;73.67;100262.98;108399;1283;23364;-60
2022/09/07 01:53:32;;;;;;;37.70;21.40;;;;;;;4.80;73.54;100264.20;108455;1284;138432;-59
2022/09/07 01:56:02;;;;;;;40.20;22.10;;;;;;;4.79;73.81;100262.41;108310;1284;23277;-59
2022/09/07 01:58:32;;;;;;;40.10;21.50;;;;;;;4.81;73.85;100263.29;108322;1284;138803;-59
2022/09/07 02:01:24;;;;;;;36.30;21.10;;;;;;;4.82;74.10;100259.23;108464;1282;22528;-59
2022/09/07 02:04:06;;;;;;;38.40;21.40;;;;;;;4.81;74.08;100254.73;108405;1282;138477;-59
2022/09/07 02:06:41;;;;;;;37.80;21.80;;;;;;;4.84;74.19;100258.87;108327;1284;22611;-61
2022/09/07 02:09:29;;;;;;;35.90;20.50;;;;;;;4.87;74.19;100256.01;108385;1284;22523;-59
2022/09/07 02:11:55;;;;;;;43.30;21.90;;;;;;;4.88;73.83;100255.85;108362;1284;23874;-59
2022/09/07 02:14:24;;;;;;;39.10;22.30;;;;;;;4.88;74.03;100251.31;108315;1285;22705;-59
2022/09/07 02:16:57;;;;;;;38.20;21.30;;;;;;;4.88;74.05;100257.14;108149;1284;138976;-59
2022/09/07 02:19:26;;;;;;;38.30;21.20;;;;;;;4.88;73.89;100254.56;108265;1277;22590;-59
2022/09/07 02:21:58;;;;;;;30.90;18.90;;;;;;;4.91;73.90;100252.69;108889;1277;138431;-59
2022/09/07 02:24:36;;;;;;;37.30;22.00;;;;;;;4.95;74.23;100252.74;109098;1277;22506;-59
2022/09/07 02:27:06;;;;;;;35.80;19.70;;;;;;;4.96;73.95;100248.05;109030;1277;22600;-59
2022/09/07 02:29:34;;;;;;;32.90;20.00;;;;;;;4.99;73.78;100249.52;108857;1277;138548;-60
2022/09/07 02:32:01;;;;;;;35.40;19.50;;;;;;;4.99;73.62;100250.77;109253;1277;22376;-59
2022/09/07 02:34:27;;;;;;;;;;;;;;;4.97;73.61;100244.64;109126;1277;139203;-59
2022/09/07 02:36:54;;;;;;;39.00;19.10;;;;;;;4.96;73.67;100243.36;109058;1276;23464;-59
2022/09/07 02:39:21;;;;;;;33.80;17.70;;;;;;;4.95;73.76;100244.81;109242;1276;22678;-59
2022/09/07 02:41:48;;;;;;;31.40;17.90;;;;;;;4.93;73.20;100241.47;108840;1277;138601;-59
2022/09/07 02:44:24;;;;;;;;;;;;;;;4.89;73.35;100240.94;109161;1277;22511;-59
2022/09/07 02:47:00;;;;;;;35.10;16.30;;;;;;;4.85;73.50;100242.67;108935;1277;125041;-59
2022/09/07 02:49:51;;;;;;;30.50;16.70;;;;;;;4.82;73.58;100237.58;109232;1277;22503;-59
2022/09/07 02:52:49;;;;;;;29.60;15.90;;;;;;;4.81;73.26;100240.37;109103;1277;138103;-59
2022/09/07 02:55:28;;;;;;;29.20;15.50;;;;;;;4.77;73.56;100245.83;109036;1277;22427;-59
2022/09/07 02:58:27;;;;;;;28.10;15.40;;;;;;;4.74;73.29;100243.84;109134;1276;138879;-59
2022/09/07 03:00:59;;;;;;;34.80;16.10;;;;;;;4.69;73.39;100236.63;109043;1277;23216;-59
2022/09/07 03:03:46;;;;;;;32.60;16.40;;;;;;;4.68;73.57;100238.74;109218;1277;22640;-59
2022/09/07 03:06:23;;;;;;;26.40;14.90;;;;;;;4.67;73.80;100236.12;109002;1277;22342;-59
2022/09/07 03:08:52;;;;;;;30.10;15.00;;;;;;;4.67;73.85;100240.85;108971;1277;23356;-59
2022/09/07 03:11:19;;;;;;;21.80;13.00;;;;;;;4.63;73.69;100236.80;109105;1277;142225;-59
2022/09/07 03:13:45;;;;;;;28.90;14.10;;;;;;;4.61;73.93;100240.68;109221;1277;22617;-59
2022/09/07 03:16:13;;;;;;;23.20;13.80;;;;;;;4.58;73.96;100239.46;109084;1277;138686;-59
2022/09/07 03:18:41;;;;;;;25.40;13.10;;;;;;;4.57;74.14;100241.00;109137;1277;22512;-59
2022/09/07 03:21:07;;;;;;;21.50;13.10;;;;;;;4.58;74.30;100240.41;109201;1277;22475;-59
2022/09/07 03:23:36;;;;;;;;;;;;;;;4.57;74.02;100241.04;109014;1277;138735;-59
2022/09/07 03:26:03;;;;;;;26.30;13.90;;;;;;;4.55;74.10;100245.30;109224;1276;22456;-60
2022/09/07 03:28:30;;;;;;;26.50;13.80;;;;;;;4.54;74.56;100245.92;109017;1277;138552;-59
2022/09/07 03:30:56;;;;;;;;;;;;;;;4.57;74.63;100242.24;109226;1276;22477;-59
2022/09/07 03:33:23;;;;;;;28.50;14.70;;;;;;;4.63;74.72;100242.21;109173;1277;22537;-59
2022/09/07 03:35:58;;;;;;;28.50;15.60;;;;;;;4.66;74.49;100241.92;109071;1277;138673;-59
2022/09/07 03:38:25;;;;;;;23.50;13.90;;;;;;;4.69;74.61;100241.32;109216;1277;22479;-59
2022/09/07 03:40:59;;;;;;;;;;;;;;;4.70;74.62;100244.57;105928;1276;141193;-59
2022/09/07 03:43:26;;;;;;;26.30;14.40;;;;;;;4.69;74.38;100246.47;104716;1278;22570;-59
2022/09/07 03:46:00;;;;;;;28.50;15.20;;;;;;;4.67;74.24;100242.02;104554;1278;140622;-59
2022/09/07 03:48:34;;;;;;;27.60;14.90;;;;;;;4.68;74.38;100239.40;104766;1278;23973;-59
2022/09/07 03:51:05;;;;;;;32.60;15.60;;;;;;;4.67;74.62;100244.55;109095;1277;23245;-59
2022/09/07 03:53:36;;;;;;;37.10;14.70;;;;;;;4.66;74.70;100248.52;109100;1277;138321;-59
2022/09/07 03:56:14;;;;;;;29.30;14.00;;;;;;;4.64;74.58;100245.86;109198;1275;23211;-59
2022/09/07 03:58:41;;;;;;;26.40;14.00;;;;;;;4.64;74.64;100248.23;109048;1277;138627;-59
2022/09/07 04:01:11;;;;;;;26.70;13.80;;;;;;;4.67;75.16;100245.55;109267;1277;22567;-59
2022/09/07 04:03:38;;;;;;;23.90;13.40;;;;;;;4.73;75.13;100247.98;109094;1277;138850;-59
2022/09/07 04:06:05;;;;;;;31.00;12.60;;;;;;;4.81;75.37;100249.21;109224;1277;22561;-59
2022/09/07 04:08:34;;;;;;;26.70;12.80;;;;;;;4.89;75.31;100249.16;109119;1277;22434;-59
2022/09/07 04:11:03;;;;;;;27.20;12.60;;;;;;;4.99;75.17;100249.98;109069;1277;139134;-59
2022/09/07 04:13:30;;;;;;;20.30;10.60;;;;;;;5.12;75.39;100250.83;109281;1276;23380;-60
2022/09/07 04:15:56;;;;;;;20.40;10.50;;;;;;;5.30;75.59;100248.20;109181;1276;139118;-60
2022/09/07 04:18:23;;;;;;;;;;;;;;;5.57;75.49;100248.09;109258;1277;22688;-60
2022/09/07 04:20:50;;;;;;;20.40;9.90;;;;;;;5.85;75.43;100248.35;109193;1277;22428;-60
2022/09/07 04:23:17;;;;;;;21.40;10.40;;;;;;;6.10;74.76;100251.71;109202;1275;139478;-60
2022/09/07 04:28:35;;;;;;;18.90;11.00;;;;;;;6.50;73.68;100248.14;101773;1309;545884;-60
2022/09/07 04:31:02;;;;;;;21.20;11.90;;;;;;;6.62;73.61;100248.64;103877;1287;24323;-59
2022/09/07 04:33:32;;;;;;;20.70;12.30;;;;;;;6.80;73.44;100248.02;104123;1287;22595;-59
2022/09/07 04:35:59;;;;;;;23.00;11.30;;;;;;;7.07;73.06;100254.63;108312;1286;23144;-60
2022/09/07 04:38:27;;;;;;;19.00;10.70;;;;;;;7.41;72.35;100251.95;108383;1287;22447;-60
2022/09/07 04:41:01;;;;;;;15.20;9.40;;;;;;;7.75;71.49;100252.39;105049;1287;137413;-59
2022/09/07 04:43:28;;;;;;;25.80;9.60;;;;;;;8.10;70.47;100246.21;107434;1283;22431;-60
2022/09/07 04:45:55;;;;;;;16.70;9.00;;;;;;;8.40;69.83;100249.27;108565;1283;139016;-60
2022/09/07 04:48:22;;;;;;;;;;;;;;;8.67;68.93;100244.98;108501;1284;22486;-61
2022/09/07 04:50:50;;;;;;;22.50;8.30;;;;;;;8.95;67.96;100244.41;108656;1284;22616;-60
2022/09/07 04:53:18;;;;;;;17.50;7.10;;;;;;;9.21;66.96;100247.27;108295;1284;138486;-60
2022/09/07 04:55:45;;;;;;;13.70;7.60;;;;;;;9.38;66.14;100245.39;108532;1284;22475;-59
2022/09/07 04:58:11;;;;;;;;;;;;;;;9.48;65.42;100246.76;108411;1284;138234;-60
2022/09/07 05:00:39;;;;;;;18.60;9.00;;;;;;;9.54;64.97;100243.75;108498;1284;22544;-59
2022/09/07 05:03:05;;;;;;;14.70;8.00;;;;;;;9.59;64.61;100243.92;108492;1284;23313;-59
2022/09/07 05:05:34;;;;;;;;;;;;;;;9.64;64.41;100247.46;108457;1284;137675;-59
2022/09/07 05:08:01;;;;;;;19.60;7.70;;;;;;;9.64;64.27;100242.10;108402;1284;23047;-59
2022/09/07 05:10:28;;;;;;;13.30;8.10;;;;;;;9.63;64.06;100241.73;108248;1285;138315;-59
2022/09/07 05:12:55;;;;;;;20.00;7.60;;;;;;;9.62;63.77;100241.92;108542;1284;22507;-59
2022/09/07 05:15:22;;;;;;;12.00;7.70;;;;;;;9.64;63.78;100241.81;108381;1284;23645;-59
2022/09/07 05:17:49;;;;;;;;;;;;;;;9.70;63.78;100241.61;108386;1284;139327;-60
2022/09/07 05:20:18;;;;;;;17.80;7.80;;;;;;;9.72;63.63;100243.68;108536;1284;22434;-60
2022/09/07 05:22:46;;;;;;;15.20;7.80;;;;;;;9.75;63.59;100242.91;108296;1284;138996;-60
2022/09/07 05:25:13;;;;;;;12.30;7.40;;;;;;;9.83;63.43;100244.23;108326;1284;22558;-60
2022/09/07 05:27:40;;;;;;;18.30;7.30;;;;;;;9.97;63.19;100241.90;108304;1283;137778;-60
2022/09/07 05:30:08;;;;;;;17.70;8.10;;;;;;;10.15;62.92;100238.23;108324;1286;22363;-60
2022/09/07 05:32:55;;;;;;;12.90;6.30;;;;;;;10.37;62.34;100234.73;108303;1284;22484;-60
2022/09/07 05:35:22;;;;;;;14.10;5.40;;;;;;;10.57;61.33;100235.71;108254;1284;138670;-60
2022/09/07 05:37:49;;;;;;;;;;;;;;;10.74;60.53;100238.77;108401;1285;23789;-60
2022/09/07 05:40:16;;;;;;;14.00;6.20;;;;;;;10.87;59.75;100232.88;106206;1284;124525;-59
2022/09/07 05:42:43;;;;;;;16.40;6.20;;;;;;;10.99;59.16;100235.05;104058;1287;24135;-59
2022/09/07 05:45:10;;;;;;;;;;;;;;;11.09;58.71;100235.66;104145;1284;24009;-59
2022/09/07 05:47:37;;;;;;;8.70;5.20;;;;;;;11.17;58.21;100234.73;103914;1286;123721;-59
2022/09/07 05:50:04;;;;;;;;;;;;;;;11.23;57.91;100229.66;104078;1287;24306;-59
2022/09/07 05:52:31;;;;;;;10.00;5.30;;;;;;;11.27;57.38;100232.77;103930;1286;126717;-60
2022/09/07 05:54:58;;;;;;;21.20;6.00;;;;;;;11.29;57.05;100232.64;103771;1286;25955;-60
2022/09/07 05:57:45;;;;;;;13.60;5.70;;;;;;;11.30;57.15;100233.17;103789;1286;139996;-61
2022/09/07 06:00:13;;;;;;;;;;;;;;;11.33;57.01;100230.92;104048;1284;24317;-61
2022/09/07 06:02:40;;;;;;;14.60;6.40;;;;;;;11.36;56.57;100233.05;108553;1284;23254;-61
2022/09/07 06:05:07;;;;;;;11.90;5.70;;;;;;;11.37;56.15;100234.20;108249;1284;137930;-61
2022/09/07 06:07:34;;;;;;;17.00;6.30;;;;;;;11.38;56.03;100237.24;108522;1284;22527;-61
2022/09/07 06:10:01;;;;;;;13.20;6.10;;;;;;;11.40;55.87;100236.27;108415;1284;138521;-62
2022/09/07 06:12:48;;;;;;;10.20;5.90;;;;;;;11.43;55.73;100239.38;108369;1284;22483;-62
2022/09/07 06:15:15;;;;;;;12.50;5.80;;;;;;;11.46;55.78;100237.14;108493;1284;22432;-61
2022/09/07 06:17:42;;;;;;;14.30;5.70;;;;;;;11.49;55.44;100241.59;108257;1284;137498;-61
2022/09/07 06:20:08;;;;;;;;;;;;;;;11.54;55.42;100238.88;108330;1284;22513;-61
2022/09/07 06:22:36;;;;;;;10.00;5.50;;;;;;;11.59;55.61;100235.30;108392;1284;123759;-61
2022/09/07 06:25:04;;;;;;;17.40;5.70;;;;;;;11.64;54.80;100236.48;108529;1284;22563;-61
2022/09/07 06:27:30;;;;;;;11.10;6.20;;;;;;;11.67;54.88;100233.92;108383;1284;137988;-60
2022/09/07 06:29:57;;;;;;;9.50;5.30;;;;;;;11.72;54.70;100237.04;108262;1285;22464;-61
2022/09/07 06:32:24;;;;;;;10.70;5.60;;;;;;;11.75;54.12;100239.50;108311;1284;22457;-60
2022/09/07 06:35:11;;;;;;;8.90;5.60;;;;;;;11.79;53.97;100242.66;108336;1284;138045;-60
2022/09/07 06:37:38;;;;;;;8.30;5.30;;;;;;;11.83;53.80;100245.90;109448;1272;22434;-60
2022/09/07 06:40:06;;;;;;;11.20;6.20;;;;;;;11.89;53.35;100247.78;107576;1273;138182;-60
2022/09/07 06:42:33;;;;;;;11.50;5.80;;;;;;;11.93;52.84;100252.77;109439;1273;22454;-60
2022/09/07 06:45:01;;;;;;;12.80;5.40;;;;;;;11.96;53.22;100252.11;109424;1274;22405;-60
2022/09/07 06:47:28;;;;;;;11.00;5.50;;;;;;;12.02;52.74;100256.18;109349;1271;138369;-61
2022/09/07 06:49:55;;;;;;;7.60;5.40;;;;;;;12.04;52.47;100252.83;109476;1274;22423;-60
2022/09/07 06:52:21;;;;;;;9.00;5.70;;;;;;;12.06;52.55;100253.96;109358;1274;138413;-60
2022/09/07 06:54:50;;;;;;;8.70;5.00;;;;;;;12.12;52.59;100253.98;109373;1273;23132;-61
2022/09/07 06:57:25;;;;;;;7.30;4.90;;;;;;;12.18;52.53;100251.25;109467;1273;22442;-60
2022/09/07 06:59:53;;;;;;;11.40;5.40;;;;;;;12.26;52.53;100250.70;109421;1271;137926;-60
2022/09/07 07:02:20;;;;;;;8.90;5.40;;;;;;;12.33;51.81;100252.00;109449;1273;23011;-60
2022/09/07 07:04:46;;;;;;;14.80;5.80;;;;;;;12.38;52.00;100249.64;109255;1273;138062;-60
2022/09/07 07:07:13;;;;;;;;;;;;;;;12.44;51.95;100253.58;109399;1274;23529;-59
2022/09/07 07:09:40;;;;;;;8.90;4.00;;;;;;;12.52;52.04;100254.02;109270;1271;124153;-60
2022/09/07 07:12:08;;;;;;;11.40;4.10;;;;;;;12.58;51.47;100250.42;109299;1276;22291;-59
2022/09/07 07:14:35;;;;;;;10.80;4.40;;;;;;;12.65;51.47;100249.13;109278;1273;22901;-60
2022/09/07 07:17:08;;;;;;;8.80;4.20;;;;;;;12.74;50.63;100249.50;109192;1273;138157;-60
2022/09/07 07:19:35;;;;;;;9.60;4.60;;;;;;;12.80;50.43;100248.92;109290;1274;22504;-60
2022/09/07 07:22:01;;;;;;;6.90;4.30;;;;;;;12.87;50.90;100248.73;109146;1273;137803;-60
2022/09/07 07:24:48;;;;;;;5.40;4.20;;;;;;;12.94;49.82;100245.54;105688;1274;24309;-60
2022/09/07 07:27:15;;;;;;;;;;;;;;;12.99;48.71;100245.20;104950;1273;24439;-60
2022/09/07 07:29:42;;;;;;;8.90;3.80;;;;;;;13.01;49.27;100239.86;104863;1274;124121;-60
2022/09/07 07:32:08;;;;;;;10.10;4.10;;;;;;;13.05;48.98;100236.58;105015;1275;22592;-60
2022/09/07 07:34:35;;;;;;;7.20;3.90;;;;;;;13.10;49.00;100234.06;104618;1276;137829;-60
2022/09/07 07:37:02;;;;;;;6.00;4.30;;;;;;;13.15;49.13;100234.77;104818;1276;22617;-60
2022/09/07 07:39:29;;;;;;;;;;;;;;;13.20;49.00;100236.77;105113;1273;22578;-60
2022/09/07 07:42:15;;;;;;;5.20;3.10;;;;;;;13.26;48.45;100229.88;104957;1274;23976;-59
2022/09/07 07:44:42;;;;;;;;;;;;;;;13.32;47.56;100231.45;104961;1275;25745;-61
2022/09/07 07:47:09;;;;;;;6.90;2.90;;;;;;;13.33;47.56;100231.36;104890;1274;125629;-60
2022/09/07 07:49:35;;;;;;;5.50;3.10;;;;;;;13.37;47.91;100232.52;105044;1274;22755;-60
2022/09/07 07:52:02;;;;;;;;;;;;;;;13.42;48.17;100226.74;104824;1274;137624;-60
2022/09/07 07:54:49;;;;;;;6.30;3.60;;;;;;;13.48;47.77;100224.45;104859;1274;24228;-60
2022/09/07 07:57:17;;;;;;;7.10;4.10;;;;;;;13.52;47.46;100220.77;104947;1274;23088;-61
2022/09/07 07:59:44;;;;;;;11.00;3.80;;;;;;;13.56;47.54;100221.23;104916;1275;137630;-60
2022/09/07 08:02:13;;;;;;;6.10;2.30;;;;;;;13.63;46.86;100222.12;105106;1274;22620;-59
2022/09/07 08:04:41;;;;;;;2.80;1.40;;;;;;;13.69;46.34;100210.56;109245;1274;138016;-60
2022/09/07 08:07:08;;;;;;;5.50;1.60;;;;;;;13.76;45.11;100213.84;109380;1274;22454;-60
2022/09/07 08:09:38;;;;;;;2.90;1.60;;;;;;;13.83;44.02;100211.83;109227;1274;138441;-60
2022/09/07 08:12:05;;;;;;;2.60;1.80;;;;;;;13.91;42.98;100210.66;109325;1274;23408;-61
2022/09/07 08:14:35;;;;;;;5.80;1.70;;;;;;;13.90;42.67;100213.90;109337;1274;22534;-61
2022/09/07 08:17:02;;;;;;;4.00;1.40;;;;;;;13.89;43.39;100213.77;109220;1274;137580;-61
2022/09/07 08:19:28;;;;;;;2.10;1.40;;;;;;;13.89;43.52;100209.98;109257;1274;22536;-61
2022/09/07 08:21:55;;;;;;;2.10;1.60;;;;;;;13.92;43.93;100207.73;109289;1273;138040;-61
2022/09/07 08:24:22;;;;;;;5.10;2.00;;;;;;;13.99;42.68;100206.79;109417;1274;22580;-61
2022/09/07 08:26:49;;;;;;;2.80;2.10;;;;;;;14.04;42.21;100203.96;109306;1274;22438;-62
2022/09/07 08:29:15;;;;;;;11.60;2.30;;;;;;;14.09;43.33;100196.93;109337;1274;137507;-62
2022/09/07 08:31:43;;;;;;;5.30;2.00;;;;;;;14.14;43.19;100191.21;109516;1273;22498;-61
2022/09/07 08:34:10;;;;;;;4.60;1.80;;;;;;;14.21;42.14;100185.22;109391;1274;137863;-61
2022/09/07 08:36:37;;;;;;;6.00;1.90;;;;;;;14.25;41.79;100179.16;109510;1274;23264;-61
2022/09/07 08:39:05;;;;;;;5.00;2.20;;;;;;;14.32;42.80;100173.09;109468;1271;22452;-61
2022/09/07 08:41:35;;;;;;;3.20;1.70;;;;;;;14.41;42.77;100176.80;109389;1274;137660;-61
2022/09/07 08:44:04;;;;;;;6.20;1.90;;;;;;;14.50;42.76;100173.50;109479;1271;22416;-61
2022/09/07 08:46:46;;;;;;;3.50;2.30;;;;;;;14.59;42.33;100174.13;109173;1274;138053;-61
2022/09/07 08:49:32;;;;;;;4.30;2.10;;;;;;;14.66;42.77;100175.26;109505;1274;23471;-61
2022/09/07 08:52:12;;;;;;;5.70;1.90;;;;;;;14.73;42.09;100171.44;109295;1273;138189;-61
2022/09/07 08:54:39;;;;;;;3.50;1.90;;;;;;;14.77;41.90;100169.03;109490;1274;22521;-61
2022/09/07 08:57:07;;;;;;;7.90;2.00;;;;;;;14.80;42.07;100171.57;109527;1274;23055;-61
2022/09/07 09:00:01;;;;;;;2.60;1.80;;;;;;;14.82;40.46;100167.80;109211;1274;138187;-61
2022/09/07 09:02:28;;;;;;;2.40;1.40;;;;;;;14.80;38.89;100158.63;109464;1274;22292;-60
2022/09/07 09:05:01;;;;;;;4.80;1.80;;;;;;;14.74;39.49;100151.40;109391;1273;138527;-61
2022/09/07 09:07:47;;;;;;;2.50;1.60;;;;;;;14.76;39.72;100152.25;109402;1270;22439;-61
2022/09/07 09:10:21;;;;;;;4.00;1.50;;;;;;;14.81;39.77;100150.95;109359;1274;138286;-61
2022/09/07 09:13:02;;;;;;;6.60;2.20;;;;;;;14.88;40.27;100154.19;109373;1273;22467;-61
2022/09/07 09:15:51;;;;;;;3.10;1.40;;;;;;;14.95;40.97;100154.93;109387;1273;22512;-61
2022/09/07 09:18:32;;;;;;;5.60;2.00;;;;;;;15.02;40.33;100147.42;109286;1274;22299;-60
2022/09/07 09:20:59;;;;;;;3.70;2.20;;;;;;;15.06;40.04;100146.21;109502;1274;22429;-61
2022/09/07 09:23:38;;;;;;;2.70;1.70;;;;;;;15.07;39.83;100144.95;109390;1274;138965;-61
2022/09/07 09:26:14;;;;;;;3.30;1.90;;;;;;;15.08;39.90;100143.77;109294;1274;22591;-61
2022/09/07 09:28:41;;;;;;;4.50;2.10;;;;;;;15.11;39.64;100138.83;109370;1273;139429;-61
2022/09/07 09:31:22;;;;;;;3.50;1.90;;;;;;;15.13;39.38;100132.35;109472;1272;22434;-61
2022/09/07 09:34:04;;;;;;;5.60;2.20;;;;;;;15.16;38.95;100131.84;109386;1273;138269;-61
2022/09/07 09:36:33;;;;;;;7.60;2.20;;;;;;;15.22;39.51;100134.10;109383;1274;22428;-61
2022/09/07 09:39:00;;;;;;;3.10;2.00;;;;;;;15.26;39.53;100130.98;109507;1272;22713;-61
2022/09/07 09:41:36;;;;;;;3.50;2.20;;;;;;;15.30;39.48;100132.08;109126;1274;137474;-61
2022/09/07 09:44:03;;;;;;;2.70;1.80;;;;;;;15.34;39.20;100116.70;109403;1273;22551;-61
2022/09/07 09:46:32;;;;;;;4.40;2.60;;;;;;;15.38;39.09;100119.28;109489;1273;138184;-61
2022/09/07 09:49:00;;;;;;;3.60;2.30;;;;;;;15.41;38.92;100118.63;109541;1274;22437;-61
2022/09/07 09:51:29;;;;;;;3.40;2.10;;;;;;;15.43;38.76;100113.25;109509;1273;22516;-60
2022/09/07 09:54:24;;;;;;;5.70;2.50;;;;;;;15.44;38.71;100108.67;109519;1274;23167;-61
2022/09/07 09:56:52;;;;;;;4.50;2.40;;;;;;;15.44;38.82;100104.71;109456;1274;22816;-61
2022/09/07 09:59:22;;;;;;;4.10;2.60;;;;;;;15.45;38.70;100098.17;109402;1274;137614;-61
2022/09/07 10:02:32;;;;;;;2.80;1.90;;;;;;;15.46;39.00;100098.84;109476;1272;23200;-61
2022/09/07 10:05:26;;;;;;;3.50;2.00;;;;;;;15.47;38.43;100097.36;109412;1273;139744;-61
2022/09/07 10:07:53;;;;;;;5.70;2.30;;;;;;;15.48;38.53;100103.02;109511;1274;22459;-61
2022/09/07 10:10:20;;;;;;;4.00;2.40;;;;;;;15.48;38.31;100101.14;109324;1274;138798;-61
2022/09/07 10:12:47;;;;;;;6.00;2.40;;;;;;;15.49;38.39;100097.52;109483;1274;22436;-61
2022/09/07 10:15:34;;;;;;;5.80;2.30;;;;;;;15.51;38.42;100101.27;109336;1272;22559;-61
2022/09/07 10:18:08;;;;;;;5.50;2.70;;;;;;;15.55;37.54;100102.71;109520;1271;22441;-60
2022/09/07 10:20:36;;;;;;;6.60;2.70;;;;;;;15.56;38.05;100101.90;109355;1273;22417;-61
2022/09/07 10:23:04;;;;;;;3.80;2.10;;;;;;;15.56;37.72;100095.30;109388;1274;137646;-61
2022/09/07 10:25:38;;;;;;;5.10;2.80;;;;;;;15.53;37.72;100091.81;109533;1272;22564;-60
2022/09/07 10:28:08;;;;;;;3.80;2.20;;;;;;;15.51;37.75;100092.86;109254;1274;139400;-60
2022/09/07 10:30:48;;;;;;;6.30;2.90;;;;;;;15.54;37.33;100090.46;109544;1272;23210;-60
2022/09/07 10:33:23;;;;;;;4.90;2.40;;;;;;;15.59;37.14;100085.56;109464;1273;22440;-60
2022/09/07 10:36:00;;;;;;;3.70;2.50;;;;;;;15.59;36.60;100082.05;109219;1274;139410;-60
2022/09/07 10:38:27;;;;;;;5.80;2.40;;;;;;;15.57;37.83;100081.25;109419;1274;22519;-60
2022/09/07 10:41:09;;;;;;;8.40;2.40;;;;;;;15.61;38.04;100072.70;109405;1274;138423;-60
2022/09/07 10:43:42;;;;;;;6.10;2.50;;;;;;;15.66;38.06;100071.55;109381;1273;22534;-60
2022/09/07 10:46:18;;;;;;;5.80;2.20;;;;;;;15.71;37.96;100068.53;109447;1274;138501;-61
2022/09/07 10:49:32;;;;;;;8.30;2.80;;;;;;;15.76;37.77;100065.04;109445;1274;22309;-60
2022/09/07 10:52:07;;;;;;;4.50;1.90;;;;;;;15.79;37.73;100062.11;109394;1274;138950;-60
2022/09/07 10:54:54;;;;;;;6.10;2.20;;;;;;;15.84;38.30;100055.40;109512;1274;22465;-61
2022/09/07 10:57:20;;;;;;;6.20;2.60;;;;;;;15.92;38.26;100059.33;109418;1272;22474;-60
2022/09/07 11:00:12;;;;;;;8.30;2.40;;;;;;;15.98;38.33;100058.55;109380;1272;137973;-61
2022/09/07 11:02:58;;;;;;;31.50;19.90;;;;;;;16.06;38.42;100057.85;109518;1273;23070;-59
2022/09/07 11:06:04;;;;;;;11.00;4.30;;;;;;;16.13;37.87;100051.11;109424;1273;138568;-60
2022/09/07 11:08:35;;;;;;;4.00;2.00;;;;;;;16.19;37.58;100048.39;109507;1270;22405;-61
2022/09/07 11:11:26;;;;;;;44.40;30.40;;;;;;;16.23;36.76;100047.21;109401;1274;138994;-59
2022/09/07 11:14:15;;;;;;;8.90;4.50;;;;;;;16.24;36.90;100041.05;109439;1274;22445;-61
2022/09/07 11:16:49;;;;;;;13.30;4.30;;;;;;;16.26;36.80;100037.75;109371;1274;138834;-60
2022/09/07 11:19:26;;;;;;;41.90;27.90;;;;;;;16.29;37.32;100032.06;109354;1274;22459;-60
2022/09/07 11:22:36;;;;;;;22.80;12.80;;;;;;;16.35;37.51;100036.64;109442;1271;140088;-61
2022/09/07 11:25:17;;;;;;;7.00;4.20;;;;;;;16.42;37.40;100028.81;109529;1272;22475;-60
2022/09/07 11:28:27;;;;;;;4.00;2.70;;;;;;;16.47;36.95;100027.66;109401;1273;138658;-60
2022/09/07 11:30:57;;;;;;;5.50;2.50;;;;;;;16.50;36.60;100023.75;109421;1273;22257;-60
2022/09/07 11:33:40;;;;;;;4.90;2.80;;;;;;;16.51;36.71;100030.45;109434;1273;22271;-61
2022/09/07 11:36:11;;;;;;;7.70;2.90;;;;;;;16.52;36.59;100018.30;109329;1274;22417;-60
2022/09/07 11:38:50;;;;;;;6.60;3.30;;;;;;;16.52;36.63;100013.66;109475;1274;22466;-61
2022/09/07 11:41:31;;;;;;;8.40;2.80;;;;;;;16.54;37.02;100010.73;109404;1273;137803;-61